sensor_id;sensor_type;location;lat;lon;timestamp;P1;durP1;ratioP1;P2;durP2;ratioP2
29466;SDS011;60968;37.490;-122.288;2022-12-18T00:02:19;17.57;;;9.27;;
29466;SDS011;60968;37.490;-122.288;2022-12-18T00:05:20;17.50;;;10.07;;
29466;SDS011;60968;37.490;-122.288;2022-12-18T00:08:21;16.40;;;10.10;;
29466;SDS011;60968;37.490;-122.288;2022-12-18T00:11:23;16.03;;;9.53;;
29466;SDS011;60968;37.490;-122.288;2022-12-18T00:14:26;19.43;;;9.63;;
29466;SDS011;60968;37.490;-122.288;2022-12-18T00:17:27;18.63;;;9.37;;
29466;SDS011;60968;37.490;-122.288;2022-12-18T00:20:28;17.03;;;8.83;;
29466;SDS011;60968;37.490;-122.288;2022-12-18T00:23:29;17.40;;;9.40;;
29466;SDS011;60968;37.490;-122.288;2022-12-18T00:26:31;19.20;;;9.40;;
29466;SDS011;60968;37.490;-122.288;2022-12-18T00:29:33;16.57;;;9.20;;
29466;SDS011;60968;37.490;-122.288;2022-12-18T00:32:34;16.33;;;8.93;;
29466;SDS011;60968;37.490;-122.288;2022-12-18T00:35:35;18.57;;;9.70;;
29466;SDS011;60968;37.490;-122.288;2022-12-18T00:38:36;15.80;;;8.53;;
29466;SDS011;60968;37.490;-122.288;2022-12-18T00:41:37;13.63;;;8.00;;
29466;SDS011;60968;37.490;-122.288;2022-12-18T00:44:38;14.27;;;8.23;;
29466;SDS011;60968;37.490;-122.288;2022-12-18T00:47:39;14.97;;;8.53;;
29466;SDS011;60968;37.490;-122.288;2022-12-18T00:50:42;15.90;;;8.47;;
29466;SDS011;60968;37.490;-122.288;2022-12-18T00:53:42;17.97;;;8.47;;
29466;SDS011;60968;37.490;-122.288;2022-12-18T00:56:44;18.73;;;8.43;;
29466;SDS011;60968;37.490;-122.288;2022-12-18T00:59:45;16.27;;;9.00;;
29466;SDS011;60968;37.490;-122.288;2022-12-18T01:02:46;14.93;;;8.17;;
29466;SDS011;60968;37.490;-122.288;2022-12-18T01:05:46;23.07;;;10.03;;
29466;SDS011;60968;37.490;-122.288;2022-12-18T01:08:47;16.90;;;9.77;;
29466;SDS011;60968;37.490;-122.288;2022-12-18T01:11:49;20.83;;;10.10;;
29466;SDS011;60968;37.490;-122.288;2022-12-18T01:14:50;18.27;;;10.67;;
29466;SDS011;60968;37.490;-122.288;2022-12-18T01:17:54;18.53;;;9.90;;
29466;SDS011;60968;37.490;-122.288;2022-12-18T01:20:54;16.93;;;9.80;;
29466;SDS011;60968;37.490;-122.288;2022-12-18T01:23:55;17.97;;;9.97;;
29466;SDS011;60968;37.490;-122.288;2022-12-18T01:26:57;21.13;;;10.77;;
29466;SDS011;60968;37.490;-122.288;2022-12-18T01:29:58;19.00;;;8.90;;
29466;SDS011;60968;37.490;-122.288;2022-12-18T01:32:58;16.50;;;7.70;;
29466;SDS011;60968;37.490;-122.288;2022-12-18T01:35:59;16.53;;;7.40;;
29466;SDS011;60968;37.490;-122.288;2022-12-18T01:39:01;13.57;;;7.17;;
29466;SDS011;60968;37.490;-122.288;2022-12-18T01:42:14;11.77;;;6.40;;
29466;SDS011;60968;37.490;-122.288;2022-12-18T01:48:16;13.97;;;6.10;;
29466;SDS011;60968;37.490;-122.288;2022-12-18T01:51:17;8.97;;;5.23;;
29466;SDS011;60968;37.490;-122.288;2022-12-18T01:54:18;12.07;;;5.53;;
29466;SDS011;60968;37.490;-122.288;2022-12-18T01:57:19;10.70;;;5.07;;
29466;SDS011;60968;37.490;-122.288;2022-12-18T02:00:21;8.40;;;5.13;;
29466;SDS011;60968;37.490;-122.288;2022-12-18T02:03:23;9.73;;;4.90;;
29466;SDS011;60968;37.490;-122.288;2022-12-18T02:06:27;7.93;;;4.63;;
29466;SDS011;60968;37.490;-122.288;2022-12-18T02:13:20;10.10;;;5.23;;
29466;SDS011;60968;37.490;-122.288;2022-12-18T02:23:10;12.90;;;5.67;;
29466;SDS011;60968;37.490;-122.288;2022-12-18T02:26:50;8.87;;;5.40;;
29466;SDS011;60968;37.490;-122.288;2022-12-18T02:29:57;13.50;;;5.50;;
29466;SDS011;60968;37.490;-122.288;2022-12-18T02:33:03;10.47;;;5.90;;
29466;SDS011;60968;37.490;-122.288;2022-12-18T02:36:07;13.83;;;5.83;;
29466;SDS011;60968;37.490;-122.288;2022-12-18T02:39:10;10.17;;;5.17;;
29466;SDS011;60968;37.490;-122.288;2022-12-18T02:42:12;13.77;;;6.77;;
29466;SDS011;60968;37.490;-122.288;2022-12-18T02:45:13;18.03;;;7.87;;
29466;SDS011;60968;37.490;-122.288;2022-12-18T02:48:14;15.13;;;7.63;;
29466;SDS011;60968;37.490;-122.288;2022-12-18T02:51:25;13.70;;;6.87;;
29466;SDS011;60968;37.490;-122.288;2022-12-18T02:58:00;11.07;;;5.93;;
29466;SDS011;60968;37.490;-122.288;2022-12-18T03:04:29;10.80;;;5.33;;
29466;SDS011;60968;37.490;-122.288;2022-12-18T03:07:58;10.60;;;4.60;;
29466;SDS011;60968;37.490;-122.288;2022-12-18T03:11:04;8.33;;;4.43;;
29466;SDS011;60968;37.490;-122.288;2022-12-18T03:14:09;9.10;;;4.30;;
29466;SDS011;60968;37.490;-122.288;2022-12-18T03:17:14;10.63;;;4.03;;
29466;SDS011;60968;37.490;-122.288;2022-12-18T03:20:21;8.90;;;4.30;;
29466;SDS011;60968;37.490;-122.288;2022-12-18T03:23:24;10.53;;;4.40;;
29466;SDS011;60968;37.490;-122.288;2022-12-18T03:26:32;8.23;;;4.90;;
29466;SDS011;60968;37.490;-122.288;2022-12-18T03:29:37;9.33;;;4.70;;
29466;SDS011;60968;37.490;-122.288;2022-12-18T03:33:27;12.37;;;5.10;;
29466;SDS011;60968;37.490;-122.288;2022-12-18T03:36:08;9.53;;;4.67;;
29466;SDS011;60968;37.490;-122.288;2022-12-18T03:39:13;8.30;;;4.97;;
29466;SDS011;60968;37.490;-122.288;2022-12-18T03:42:23;9.27;;;5.50;;
29466;SDS011;60968;37.490;-122.288;2022-12-18T03:45:39;18.30;;;5.63;;
29466;SDS011;60968;37.490;-122.288;2022-12-18T03:55:18;9.73;;;5.57;;
29466;SDS011;60968;37.490;-122.288;2022-12-18T03:58:22;13.43;;;6.53;;
29466;SDS011;60968;37.490;-122.288;2022-12-18T04:01:28;13.23;;;6.10;;
29466;SDS011;60968;37.490;-122.288;2022-12-18T04:04:37;12.20;;;6.13;;
29466;SDS011;60968;37.490;-122.288;2022-12-18T04:07:40;10.13;;;6.13;;
29466;SDS011;60968;37.490;-122.288;2022-12-18T04:10:42;11.33;;;6.40;;
29466;SDS011;60968;37.490;-122.288;2022-12-18T04:13:43;10.13;;;6.37;;
29466;SDS011;60968;37.490;-122.288;2022-12-18T04:16:44;13.07;;;7.03;;
29466;SDS011;60968;37.490;-122.288;2022-12-18T04:19:46;18.40;;;6.90;;
29466;SDS011;60968;37.490;-122.288;2022-12-18T04:22:47;12.90;;;6.40;;
29466;SDS011;60968;37.490;-122.288;2022-12-18T04:25:48;10.57;;;6.40;;
29466;SDS011;60968;37.490;-122.288;2022-12-18T04:28:50;13.90;;;7.27;;
29466;SDS011;60968;37.490;-122.288;2022-12-18T04:31:51;16.10;;;7.37;;
29466;SDS011;60968;37.490;-122.288;2022-12-18T04:34:52;12.37;;;6.73;;
29466;SDS011;60968;37.490;-122.288;2022-12-18T04:37:52;14.03;;;6.83;;
29466;SDS011;60968;37.490;-122.288;2022-12-18T04:40:53;12.17;;;6.90;;
29466;SDS011;60968;37.490;-122.288;2022-12-18T04:43:54;15.13;;;7.63;;
29466;SDS011;60968;37.490;-122.288;2022-12-18T04:46:55;14.90;;;8.27;;
29466;SDS011;60968;37.490;-122.288;2022-12-18T04:49:56;19.90;;;9.07;;
29466;SDS011;60968;37.490;-122.288;2022-12-18T04:52:57;17.47;;;8.73;;
29466;SDS011;60968;37.490;-122.288;2022-12-18T04:56:08;16.00;;;8.47;;
29466;SDS011;60968;37.490;-122.288;2022-12-18T04:59:10;18.97;;;8.60;;
29466;SDS011;60968;37.490;-122.288;2022-12-18T05:02:11;14.60;;;7.57;;
29466;SDS011;60968;37.490;-122.288;2022-12-18T05:05:12;14.60;;;8.50;;
29466;SDS011;60968;37.490;-122.288;2022-12-18T05:08:13;17.80;;;8.20;;
29466;SDS011;60968;37.490;-122.288;2022-12-18T05:11:14;15.70;;;9.00;;
29466;SDS011;60968;37.490;-122.288;2022-12-18T05:14:15;17.00;;;8.67;;
29466;SDS011;60968;37.490;-122.288;2022-12-18T05:17:16;16.30;;;7.97;;
29466;SDS011;60968;37.490;-122.288;2022-12-18T05:20:17;16.73;;;8.10;;
29466;SDS011;60968;37.490;-122.288;2022-12-18T05:23:19;14.30;;;8.60;;
29466;SDS011;60968;37.490;-122.288;2022-12-18T05:26:21;14.03;;;7.37;;
29466;SDS011;60968;37.490;-122.288;2022-12-18T05:29:22;15.73;;;8.47;;
29466;SDS011;60968;37.490;-122.288;2022-12-18T05:32:23;13.73;;;8.30;;
29466;SDS011;60968;37.490;-122.288;2022-12-18T05:35:24;16.53;;;7.87;;
29466;SDS011;60968;37.490;-122.288;2022-12-18T05:38:25;18.40;;;8.37;;
29466;SDS011;60968;37.490;-122.288;2022-12-18T05:41:27;17.70;;;8.30;;
29466;SDS011;60968;37.490;-122.288;2022-12-18T05:44:28;14.13;;;7.57;;
29466;SDS011;60968;37.490;-122.288;2022-12-18T05:47:30;16.10;;;7.83;;
29466;SDS011;60968;37.490;-122.288;2022-12-18T05:50:33;17.83;;;8.07;;
29466;SDS011;60968;37.490;-122.288;2022-12-18T05:53:35;16.63;;;8.10;;
29466;SDS011;60968;37.490;-122.288;2022-12-18T05:56:37;17.10;;;8.83;;
29466;SDS011;60968;37.490;-122.288;2022-12-18T05:59:38;17.53;;;8.07;;
29466;SDS011;60968;37.490;-122.288;2022-12-18T06:02:39;16.60;;;8.37;;
29466;SDS011;60968;37.490;-122.288;2022-12-18T06:05:43;14.70;;;8.07;;
29466;SDS011;60968;37.490;-122.288;2022-12-18T06:08:45;15.30;;;7.17;;
29466;SDS011;60968;37.490;-122.288;2022-12-18T06:11:47;14.87;;;8.50;;
29466;SDS011;60968;37.490;-122.288;2022-12-18T06:14:48;12.87;;;7.50;;
29466;SDS011;60968;37.490;-122.288;2022-12-18T06:17:50;13.20;;;6.83;;
29466;SDS011;60968;37.490;-122.288;2022-12-18T06:20:55;13.10;;;7.53;;
29466;SDS011;60968;37.490;-122.288;2022-12-18T06:23:56;15.10;;;8.30;;
29466;SDS011;60968;37.490;-122.288;2022-12-18T06:26:57;14.40;;;7.57;;
29466;SDS011;60968;37.490;-122.288;2022-12-18T06:30:00;15.13;;;7.67;;
29466;SDS011;60968;37.490;-122.288;2022-12-18T06:33:02;14.80;;;8.27;;
29466;SDS011;60968;37.490;-122.288;2022-12-18T06:39:06;15.30;;;8.77;;
29466;SDS011;60968;37.490;-122.288;2022-12-18T06:42:07;24.47;;;8.77;;
29466;SDS011;60968;37.490;-122.288;2022-12-18T06:45:08;17.87;;;9.10;;
29466;SDS011;60968;37.490;-122.288;2022-12-18T06:48:09;21.40;;;9.60;;
29466;SDS011;60968;37.490;-122.288;2022-12-18T06:51:10;20.03;;;8.90;;
29466;SDS011;60968;37.490;-122.288;2022-12-18T06:54:11;17.30;;;9.50;;
29466;SDS011;60968;37.490;-122.288;2022-12-18T06:57:13;21.10;;;10.70;;
29466;SDS011;60968;37.490;-122.288;2022-12-18T07:00:13;15.47;;;9.20;;
29466;SDS011;60968;37.490;-122.288;2022-12-18T07:03:14;22.70;;;11.17;;
29466;SDS011;60968;37.490;-122.288;2022-12-18T07:06:17;19.03;;;10.47;;
29466;SDS011;60968;37.490;-122.288;2022-12-18T07:09:19;20.93;;;10.73;;
29466;SDS011;60968;37.490;-122.288;2022-12-18T07:12:20;18.43;;;10.40;;
29466;SDS011;60968;37.490;-122.288;2022-12-18T07:15:21;21.00;;;10.57;;
29466;SDS011;60968;37.490;-122.288;2022-12-18T07:18:22;21.17;;;10.83;;
29466;SDS011;60968;37.490;-122.288;2022-12-18T07:21:24;17.53;;;9.83;;
29466;SDS011;60968;37.490;-122.288;2022-12-18T07:24:25;21.27;;;10.37;;
29466;SDS011;60968;37.490;-122.288;2022-12-18T07:27:26;19.73;;;10.60;;
29466;SDS011;60968;37.490;-122.288;2022-12-18T07:30:27;21.97;;;10.80;;
29466;SDS011;60968;37.490;-122.288;2022-12-18T07:33:29;20.23;;;11.33;;
29466;SDS011;60968;37.490;-122.288;2022-12-18T07:36:30;23.13;;;11.57;;
29466;SDS011;60968;37.490;-122.288;2022-12-18T07:39:30;19.80;;;11.20;;
29466;SDS011;60968;37.490;-122.288;2022-12-18T07:42:32;23.77;;;12.53;;
29466;SDS011;60968;37.490;-122.288;2022-12-18T07:45:33;23.37;;;13.00;;
29466;SDS011;60968;37.490;-122.288;2022-12-18T07:48:34;24.43;;;12.77;;
29466;SDS011;60968;37.490;-122.288;2022-12-18T07:51:35;24.53;;;13.10;;
29466;SDS011;60968;37.490;-122.288;2022-12-18T07:54:36;22.53;;;12.93;;
29466;SDS011;60968;37.490;-122.288;2022-12-18T07:57:36;25.17;;;12.50;;
29466;SDS011;60968;37.490;-122.288;2022-12-18T08:00:37;20.47;;;11.10;;
29466;SDS011;60968;37.490;-122.288;2022-12-18T08:03:39;24.83;;;12.40;;
29466;SDS011;60968;37.490;-122.288;2022-12-18T08:06:40;23.73;;;13.83;;
29466;SDS011;60968;37.490;-122.288;2022-12-18T08:09:45;27.50;;;14.67;;
29466;SDS011;60968;37.490;-122.288;2022-12-18T08:12:48;28.40;;;15.47;;
29466;SDS011;60968;37.490;-122.288;2022-12-18T08:16:00;27.00;;;14.17;;
29466;SDS011;60968;37.490;-122.288;2022-12-18T08:19:06;24.37;;;13.60;;
29466;SDS011;60968;37.490;-122.288;2022-12-18T08:22:07;26.87;;;15.27;;
29466;SDS011;60968;37.490;-122.288;2022-12-18T08:25:08;27.90;;;14.63;;
29466;SDS011;60968;37.490;-122.288;2022-12-18T08:28:09;27.40;;;14.07;;
29466;SDS011;60968;37.490;-122.288;2022-12-18T08:31:11;24.53;;;13.63;;
29466;SDS011;60968;37.490;-122.288;2022-12-18T08:34:13;23.33;;;13.00;;
29466;SDS011;60968;37.490;-122.288;2022-12-18T08:37:15;25.90;;;12.97;;
29466;SDS011;60968;37.490;-122.288;2022-12-18T08:40:15;27.53;;;13.50;;
29466;SDS011;60968;37.490;-122.288;2022-12-18T08:43:17;24.33;;;14.07;;
29466;SDS011;60968;37.490;-122.288;2022-12-18T08:46:18;26.07;;;15.27;;
29466;SDS011;60968;37.490;-122.288;2022-12-18T08:49:20;24.27;;;14.13;;
29466;SDS011;60968;37.490;-122.288;2022-12-18T08:52:21;23.80;;;12.87;;
29466;SDS011;60968;37.490;-122.288;2022-12-18T08:55:22;29.03;;;14.90;;
29466;SDS011;60968;37.490;-122.288;2022-12-18T08:58:22;26.37;;;14.63;;
29466;SDS011;60968;37.490;-122.288;2022-12-18T09:01:23;26.13;;;14.40;;
29466;SDS011;60968;37.490;-122.288;2022-12-18T09:04:24;28.23;;;14.80;;
29466;SDS011;60968;37.490;-122.288;2022-12-18T09:07:25;26.87;;;14.70;;
29466;SDS011;60968;37.490;-122.288;2022-12-18T09:10:27;28.43;;;14.73;;
29466;SDS011;60968;37.490;-122.288;2022-12-18T09:13:28;23.87;;;13.73;;
29466;SDS011;60968;37.490;-122.288;2022-12-18T09:16:29;27.83;;;14.60;;
29466;SDS011;60968;37.490;-122.288;2022-12-18T09:19:31;26.67;;;13.70;;
29466;SDS011;60968;37.490;-122.288;2022-12-18T09:22:32;27.77;;;15.10;;
29466;SDS011;60968;37.490;-122.288;2022-12-18T09:25:35;32.30;;;15.83;;
29466;SDS011;60968;37.490;-122.288;2022-12-18T09:28:37;32.73;;;15.67;;
29466;SDS011;60968;37.490;-122.288;2022-12-18T09:31:38;33.90;;;15.00;;
29466;SDS011;60968;37.490;-122.288;2022-12-18T09:34:39;28.60;;;15.27;;
29466;SDS011;60968;37.490;-122.288;2022-12-18T09:37:41;32.17;;;14.87;;
29466;SDS011;60968;37.490;-122.288;2022-12-18T09:40:43;31.57;;;15.07;;
29466;SDS011;60968;37.490;-122.288;2022-12-18T09:44:03;28.03;;;15.53;;
29466;SDS011;60968;37.490;-122.288;2022-12-18T09:47:15;32.53;;;16.07;;
29466;SDS011;60968;37.490;-122.288;2022-12-18T09:50:32;27.07;;;14.63;;
29466;SDS011;60968;37.490;-122.288;2022-12-18T09:53:37;26.23;;;14.40;;
29466;SDS011;60968;37.490;-122.288;2022-12-18T09:56:41;27.80;;;14.20;;
29466;SDS011;60968;37.490;-122.288;2022-12-18T09:59:44;27.13;;;14.13;;
29466;SDS011;60968;37.490;-122.288;2022-12-18T10:02:51;30.20;;;14.53;;
29466;SDS011;60968;37.490;-122.288;2022-12-18T10:09:05;33.20;;;14.80;;
29466;SDS011;60968;37.490;-122.288;2022-12-18T10:12:29;29.07;;;15.40;;
29466;SDS011;60968;37.490;-122.288;2022-12-18T10:15:41;31.83;;;16.43;;
29466;SDS011;60968;37.490;-122.288;2022-12-18T10:29:12;30.27;;;17.63;;
29466;SDS011;60968;37.490;-122.288;2022-12-18T10:32:24;37.67;;;18.47;;
29466;SDS011;60968;37.490;-122.288;2022-12-18T10:35:28;37.73;;;18.93;;
29466;SDS011;60968;37.490;-122.288;2022-12-18T10:38:29;41.27;;;19.70;;
29466;SDS011;60968;37.490;-122.288;2022-12-18T10:41:32;38.93;;;19.40;;
29466;SDS011;60968;37.490;-122.288;2022-12-18T10:44:32;40.77;;;19.53;;
29466;SDS011;60968;37.490;-122.288;2022-12-18T10:47:34;38.67;;;20.93;;
29466;SDS011;60968;37.490;-122.288;2022-12-18T10:50:36;41.57;;;20.40;;
29466;SDS011;60968;37.490;-122.288;2022-12-18T10:53:38;44.93;;;22.23;;
29466;SDS011;60968;37.490;-122.288;2022-12-18T10:56:42;41.47;;;21.97;;
29466;SDS011;60968;37.490;-122.288;2022-12-18T10:59:53;47.80;;;22.03;;
29466;SDS011;60968;37.490;-122.288;2022-12-18T11:02:56;44.43;;;22.87;;
29466;SDS011;60968;37.490;-122.288;2022-12-18T11:06:05;40.40;;;22.50;;
29466;SDS011;60968;37.490;-122.288;2022-12-18T11:09:21;46.53;;;22.87;;
29466;SDS011;60968;37.490;-122.288;2022-12-18T11:12:24;45.77;;;23.20;;
29466;SDS011;60968;37.490;-122.288;2022-12-18T11:15:28;49.30;;;24.17;;
29466;SDS011;60968;37.490;-122.288;2022-12-18T11:18:34;49.00;;;25.00;;
29466;SDS011;60968;37.490;-122.288;2022-12-18T11:21:41;45.13;;;22.37;;
29466;SDS011;60968;37.490;-122.288;2022-12-18T11:24:43;40.20;;;21.30;;
29466;SDS011;60968;37.490;-122.288;2022-12-18T11:28:03;37.80;;;20.93;;
29466;SDS011;60968;37.490;-122.288;2022-12-18T11:31:25;38.33;;;20.20;;
29466;SDS011;60968;37.490;-122.288;2022-12-18T11:34:28;37.03;;;20.00;;
29466;SDS011;60968;37.490;-122.288;2022-12-18T11:37:32;30.20;;;17.43;;
29466;SDS011;60968;37.490;-122.288;2022-12-18T11:40:35;37.07;;;18.57;;
29466;SDS011;60968;37.490;-122.288;2022-12-18T11:43:38;35.83;;;18.37;;
29466;SDS011;60968;37.490;-122.288;2022-12-18T11:46:53;33.07;;;18.00;;
29466;SDS011;60968;37.490;-122.288;2022-12-18T11:50:01;39.40;;;19.80;;
29466;SDS011;60968;37.490;-122.288;2022-12-18T11:53:04;37.20;;;19.63;;
29466;SDS011;60968;37.490;-122.288;2022-12-18T11:59:33;39.33;;;19.73;;
29466;SDS011;60968;37.490;-122.288;2022-12-18T12:09:42;41.57;;;19.73;;
29466;SDS011;60968;37.490;-122.288;2022-12-18T12:19:35;40.40;;;20.87;;
29466;SDS011;60968;37.490;-122.288;2022-12-18T12:23:12;40.43;;;19.57;;
29466;SDS011;60968;37.490;-122.288;2022-12-18T12:26:26;36.70;;;19.30;;
29466;SDS011;60968;37.490;-122.288;2022-12-18T12:36:06;44.33;;;20.50;;
29466;SDS011;60968;37.490;-122.288;2022-12-18T12:39:20;39.80;;;22.10;;
29466;SDS011;60968;37.490;-122.288;2022-12-18T12:42:50;42.03;;;21.17;;
29466;SDS011;60968;37.490;-122.288;2022-12-18T12:46:04;39.53;;;21.57;;
29466;SDS011;60968;37.490;-122.288;2022-12-18T12:49:17;45.17;;;22.67;;
29466;SDS011;60968;37.490;-122.288;2022-12-18T12:52:26;42.00;;;22.20;;
29466;SDS011;60968;37.490;-122.288;2022-12-18T12:55:33;44.87;;;23.20;;
29466;SDS011;60968;37.490;-122.288;2022-12-18T13:02:02;46.53;;;21.97;;
29466;SDS011;60968;37.490;-122.288;2022-12-18T13:08:28;42.27;;;22.63;;
29466;SDS011;60968;37.490;-122.288;2022-12-18T13:11:41;44.93;;;22.33;;
29466;SDS011;60968;37.490;-122.288;2022-12-18T13:14:44;44.40;;;22.17;;
29466;SDS011;60968;37.490;-122.288;2022-12-18T13:17:45;42.00;;;21.50;;
29466;SDS011;60968;37.490;-122.288;2022-12-18T13:20:47;43.10;;;22.33;;
29466;SDS011;60968;37.490;-122.288;2022-12-18T13:24:15;46.73;;;22.67;;
29466;SDS011;60968;37.490;-122.288;2022-12-18T13:30:58;46.27;;;22.83;;
29466;SDS011;60968;37.490;-122.288;2022-12-18T13:47:27;48.43;;;22.93;;
29466;SDS011;60968;37.490;-122.288;2022-12-18T13:50:33;43.73;;;24.30;;
29466;SDS011;60968;37.490;-122.288;2022-12-18T13:53:47;55.40;;;26.67;;
29466;SDS011;60968;37.490;-122.288;2022-12-18T13:56:51;55.53;;;26.40;;
29466;SDS011;60968;37.490;-122.288;2022-12-18T13:59:52;53.57;;;26.03;;
29466;SDS011;60968;37.490;-122.288;2022-12-18T14:02:53;50.07;;;25.53;;
29466;SDS011;60968;37.490;-122.288;2022-12-18T14:06:07;53.13;;;25.43;;
29466;SDS011;60968;37.490;-122.288;2022-12-18T14:09:10;53.33;;;24.53;;
29466;SDS011;60968;37.490;-122.288;2022-12-18T14:12:24;49.03;;;24.47;;
29466;SDS011;60968;37.490;-122.288;2022-12-18T14:15:34;54.40;;;25.07;;
29466;SDS011;60968;37.490;-122.288;2022-12-18T14:18:45;48.57;;;23.17;;
29466;SDS011;60968;37.490;-122.288;2022-12-18T14:21:56;48.30;;;23.97;;
29466;SDS011;60968;37.490;-122.288;2022-12-18T14:28:13;54.13;;;25.10;;
29466;SDS011;60968;37.490;-122.288;2022-12-18T14:31:19;50.70;;;24.97;;
29466;SDS011;60968;37.490;-122.288;2022-12-18T14:34:26;64.40;;;28.90;;
29466;SDS011;60968;37.490;-122.288;2022-12-18T14:37:27;61.87;;;29.10;;
29466;SDS011;60968;37.490;-122.288;2022-12-18T14:40:28;58.10;;;29.67;;
29466;SDS011;60968;37.490;-122.288;2022-12-18T14:43:31;56.23;;;27.93;;
29466;SDS011;60968;37.490;-122.288;2022-12-18T14:49:40;57.27;;;29.87;;
29466;SDS011;60968;37.490;-122.288;2022-12-18T14:52:43;64.90;;;32.13;;
29466;SDS011;60968;37.490;-122.288;2022-12-18T14:55:47;66.20;;;31.37;;
29466;SDS011;60968;37.490;-122.288;2022-12-18T14:58:59;72.07;;;32.37;;
29466;SDS011;60968;37.490;-122.288;2022-12-18T15:02:19;67.47;;;32.23;;
29466;SDS011;60968;37.490;-122.288;2022-12-18T15:05:27;74.77;;;33.13;;
29466;SDS011;60968;37.490;-122.288;2022-12-18T15:08:31;70.67;;;32.67;;
29466;SDS011;60968;37.490;-122.288;2022-12-18T15:14:44;63.67;;;32.23;;
29466;SDS011;60968;37.490;-122.288;2022-12-18T15:17:46;63.77;;;33.17;;
29466;SDS011;60968;37.490;-122.288;2022-12-18T15:20:50;73.13;;;31.90;;
29466;SDS011;60968;37.490;-122.288;2022-12-18T15:23:53;72.90;;;33.87;;
29466;SDS011;60968;37.490;-122.288;2022-12-18T15:26:54;69.53;;;31.97;;
29466;SDS011;60968;37.490;-122.288;2022-12-18T15:30:38;73.13;;;34.70;;
29466;SDS011;60968;37.490;-122.288;2022-12-18T15:33:25;69.40;;;33.50;;
29466;SDS011;60968;37.490;-122.288;2022-12-18T15:36:27;70.40;;;33.13;;
29466;SDS011;60968;37.490;-122.288;2022-12-18T15:39:30;74.70;;;33.13;;
29466;SDS011;60968;37.490;-122.288;2022-12-18T15:42:31;75.60;;;33.20;;
29466;SDS011;60968;37.490;-122.288;2022-12-18T15:45:32;74.10;;;33.10;;
29466;SDS011;60968;37.490;-122.288;2022-12-18T15:48:34;77.23;;;35.93;;
29466;SDS011;60968;37.490;-122.288;2022-12-18T15:51:39;75.07;;;33.80;;
29466;SDS011;60968;37.490;-122.288;2022-12-18T15:54:40;80.53;;;35.63;;
29466;SDS011;60968;37.490;-122.288;2022-12-18T15:57:41;81.67;;;35.67;;
29466;SDS011;60968;37.490;-122.288;2022-12-18T16:00:42;69.17;;;33.50;;
29466;SDS011;60968;37.490;-122.288;2022-12-18T16:03:43;73.43;;;34.10;;
29466;SDS011;60968;37.490;-122.288;2022-12-18T16:06:43;67.13;;;32.07;;
29466;SDS011;60968;37.490;-122.288;2022-12-18T16:09:44;65.47;;;32.67;;
29466;SDS011;60968;37.490;-122.288;2022-12-18T16:12:48;59.63;;;30.07;;
29466;SDS011;60968;37.490;-122.288;2022-12-18T16:15:49;39.30;;;22.10;;
29466;SDS011;60968;37.490;-122.288;2022-12-18T16:18:50;36.47;;;20.23;;
29466;SDS011;60968;37.490;-122.288;2022-12-18T16:21:51;29.87;;;18.87;;
29466;SDS011;60968;37.490;-122.288;2022-12-18T16:24:54;28.77;;;17.07;;
29466;SDS011;60968;37.490;-122.288;2022-12-18T16:27:56;23.43;;;15.43;;
29466;SDS011;60968;37.490;-122.288;2022-12-18T16:30:57;26.57;;;17.47;;
29466;SDS011;60968;37.490;-122.288;2022-12-18T16:34:18;25.23;;;16.33;;
29466;SDS011;60968;37.490;-122.288;2022-12-18T16:37:21;26.23;;;17.97;;
29466;SDS011;60968;37.490;-122.288;2022-12-18T16:40:22;25.80;;;17.27;;
29466;SDS011;60968;37.490;-122.288;2022-12-18T16:43:24;26.10;;;17.10;;
29466;SDS011;60968;37.490;-122.288;2022-12-18T16:46:24;28.50;;;18.53;;
29466;SDS011;60968;37.490;-122.288;2022-12-18T16:49:26;26.90;;;17.30;;
29466;SDS011;60968;37.490;-122.288;2022-12-18T16:52:27;24.33;;;16.53;;
29466;SDS011;60968;37.490;-122.288;2022-12-18T16:55:28;23.80;;;15.47;;
29466;SDS011;60968;37.490;-122.288;2022-12-18T16:58:29;20.60;;;15.07;;
29466;SDS011;60968;37.490;-122.288;2022-12-18T17:01:30;22.33;;;15.33;;
29466;SDS011;60968;37.490;-122.288;2022-12-18T17:04:32;24.17;;;16.20;;
29466;SDS011;60968;37.490;-122.288;2022-12-18T17:07:33;25.83;;;16.37;;
29466;SDS011;60968;37.490;-122.288;2022-12-18T17:10:34;23.73;;;15.53;;
29466;SDS011;60968;37.490;-122.288;2022-12-18T17:13:35;26.53;;;16.47;;
29466;SDS011;60968;37.490;-122.288;2022-12-18T17:16:36;32.23;;;19.47;;
29466;SDS011;60968;37.490;-122.288;2022-12-18T17:19:37;30.50;;;17.40;;
29466;SDS011;60968;37.490;-122.288;2022-12-18T17:22:38;29.03;;;17.57;;
29466;SDS011;60968;37.490;-122.288;2022-12-18T17:25:39;30.17;;;18.57;;
29466;SDS011;60968;37.490;-122.288;2022-12-18T17:28:40;30.70;;;17.57;;
29466;SDS011;60968;37.490;-122.288;2022-12-18T17:31:41;32.43;;;19.70;;
29466;SDS011;60968;37.490;-122.288;2022-12-18T17:34:42;36.70;;;19.37;;
29466;SDS011;60968;37.490;-122.288;2022-12-18T17:37:43;31.93;;;18.90;;
29466;SDS011;60968;37.490;-122.288;2022-12-18T17:40:44;33.77;;;17.87;;
29466;SDS011;60968;37.490;-122.288;2022-12-18T17:43:54;33.20;;;19.37;;
29466;SDS011;60968;37.490;-122.288;2022-12-18T17:46:59;36.20;;;20.53;;
29466;SDS011;60968;37.490;-122.288;2022-12-18T17:50:02;35.40;;;19.40;;
29466;SDS011;60968;37.490;-122.288;2022-12-18T17:53:02;31.80;;;18.60;;
29466;SDS011;60968;37.490;-122.288;2022-12-18T17:56:04;35.10;;;20.03;;
29466;SDS011;60968;37.490;-122.288;2022-12-18T17:59:05;34.30;;;19.00;;
29466;SDS011;60968;37.490;-122.288;2022-12-18T18:02:06;37.07;;;20.40;;
29466;SDS011;60968;37.490;-122.288;2022-12-18T18:05:10;37.30;;;19.63;;
29466;SDS011;60968;37.490;-122.288;2022-12-18T18:08:11;35.70;;;20.20;;
29466;SDS011;60968;37.490;-122.288;2022-12-18T18:11:14;36.00;;;18.57;;
29466;SDS011;60968;37.490;-122.288;2022-12-18T18:14:17;31.77;;;17.80;;
29466;SDS011;60968;37.490;-122.288;2022-12-18T18:17:19;31.83;;;17.83;;
29466;SDS011;60968;37.490;-122.288;2022-12-18T18:20:20;30.10;;;17.53;;
29466;SDS011;60968;37.490;-122.288;2022-12-18T18:23:21;31.33;;;18.17;;
29466;SDS011;60968;37.490;-122.288;2022-12-18T18:26:26;31.97;;;19.00;;
29466;SDS011;60968;37.490;-122.288;2022-12-18T18:29:27;29.07;;;17.00;;
29466;SDS011;60968;37.490;-122.288;2022-12-18T18:32:28;27.13;;;17.23;;
29466;SDS011;60968;37.490;-122.288;2022-12-18T18:35:29;31.00;;;18.97;;
29466;SDS011;60968;37.490;-122.288;2022-12-18T18:38:30;25.23;;;16.37;;
29466;SDS011;60968;37.490;-122.288;2022-12-18T18:41:31;27.13;;;16.00;;
29466;SDS011;60968;37.490;-122.288;2022-12-18T18:44:32;24.03;;;15.10;;
29466;SDS011;60968;37.490;-122.288;2022-12-18T18:47:32;29.13;;;16.03;;
29466;SDS011;60968;37.490;-122.288;2022-12-18T18:50:33;25.30;;;14.17;;
29466;SDS011;60968;37.490;-122.288;2022-12-18T18:53:35;23.60;;;14.43;;
29466;SDS011;60968;37.490;-122.288;2022-12-18T18:56:37;27.97;;;15.30;;